Terminal Aerodrome Forecast
Issued by NWS Pittsburgh, PA

Current Version | Previous Version | Text Only | Print | Product List | Glossary Off
Versions: 1 2 3 4 5 6 7 8 9 10 11 12 13 14 15 16 17 18 19 20 21 22 23 24 25 26 27 28 29 30 31

000
FTUS41 KPBZ 270240 AAA
TAFPIT
TAF AMD
KPIT 270240Z 2703/2806 08005KT P6SM OVC150
     FM270400 09005KT P6SM VCSH OVC035
     FM270600 10008KT 5SM -RA OVC025
     FM270900 12012KT 3SM -RA BR OVC010 WS020/13040KT
     FM271800 15017G22KT P6SM VCTS BKN015CB
     FM280000 20010KT P6SM VCSH OVC015=

USA.gov is the U.S. government's official web portal to all federal, state and local government web resources and services.